sensor_id;sensor_type;location;lat;lon;timestamp;pressure;altitude;pressure_sealevel;temperature;humidity
39681;BME280;26327;42.550;23.120;2023-02-28T08:25:44;93310.84;;;8.40;100.00
39681;BME280;26327;42.550;23.120;2023-02-28T08:28:18;93327.13;;;8.58;100.00
39681;BME280;26327;42.550;23.120;2023-02-28T08:30:44;93325.41;;;8.83;100.00
39681;BME280;26327;42.550;23.120;2023-02-28T08:33:09;93379.56;;;9.02;100.00
39681;BME280;26327;42.550;23.120;2023-02-28T08:35:36;93367.88;;;8.98;100.00
39681;BME280;26327;42.550;23.120;2023-02-28T08:38:01;93328.81;;;8.92;100.00
39681;BME280;26327;42.550;23.120;2023-02-28T08:40:26;93353.19;;;9.23;100.00
39681;BME280;26327;42.550;23.120;2023-02-28T08:42:53;93268.03;;;8.54;100.00
39681;BME280;26327;42.550;23.120;2023-02-28T08:45:19;93380.06;;;9.06;100.00
39681;BME280;26327;42.550;23.120;2023-02-28T08:47:44;93382.72;;;9.30;100.00
39681;BME280;26327;42.550;23.120;2023-02-28T08:50:10;93324.94;;;8.96;100.00
39681;BME280;26327;42.550;23.120;2023-02-28T08:52:35;93298.97;;;8.63;100.00
39681;BME280;26327;42.550;23.120;2023-02-28T08:55:01;93332.50;;;8.73;100.00
39681;BME280;26327;42.550;23.120;2023-02-28T08:57:27;93371.44;;;8.97;100.00
39681;BME280;26327;42.550;23.120;2023-02-28T08:59:52;93322.81;;;8.83;100.00
39681;BME280;26327;42.550;23.120;2023-02-28T09:02:18;93394.03;;;8.71;100.00
39681;BME280;26327;42.550;23.120;2023-02-28T09:04:43;93308.50;;;8.55;100.00
39681;BME280;26327;42.550;23.120;2023-02-28T09:07:11;93358.19;;;9.00;100.00
39681;BME280;26327;42.550;23.120;2023-02-28T09:09:36;93341.50;;;9.03;100.00
39681;BME280;26327;42.550;23.120;2023-02-28T09:12:02;93324.28;;;8.94;100.00
39681;BME280;26327;42.550;23.120;2023-02-28T09:14:28;93259.50;;;8.77;100.00
39681;BME280;26327;42.550;23.120;2023-02-28T09:16:53;93266.75;;;8.66;100.00
39681;BME280;26327;42.550;23.120;2023-02-28T09:19:19;93340.56;;;9.28;100.00
39681;BME280;26327;42.550;23.120;2023-02-28T09:21:45;93370.53;;;9.14;100.00
39681;BME280;26327;42.550;23.120;2023-02-28T09:24:10;93373.44;;;9.03;100.00
39681;BME280;26327;42.550;23.120;2023-02-28T09:26:38;93341.38;;;9.12;100.00
39681;BME280;26327;42.550;23.120;2023-02-28T09:29:04;93371.31;;;8.99;100.00
39681;BME280;26327;42.550;23.120;2023-02-28T09:31:29;93305.06;;;9.12;100.00
39681;BME280;26327;42.550;23.120;2023-02-28T09:33:56;93340.28;;;9.72;100.00
39681;BME280;26327;42.550;23.120;2023-02-28T09:36:23;93351.13;;;9.75;100.00
39681;BME280;26327;42.550;23.120;2023-02-28T09:38:49;93362.97;;;9.94;100.00
39681;BME280;26327;42.550;23.120;2023-02-28T09:41:21;93274.28;;;9.34;100.00
39681;BME280;26327;42.550;23.120;2023-02-28T09:43:50;93362.13;;;10.26;100.00
39681;BME280;26327;42.550;23.120;2023-02-28T09:46:31;93364.09;;;10.24;100.00
39681;BME280;26327;42.550;23.120;2023-02-28T09:49:01;93306.66;;;10.03;100.00
39681;BME280;26327;42.550;23.120;2023-02-28T09:51:43;93342.50;;;10.16;100.00
39681;BME280;26327;42.550;23.120;2023-02-28T09:54:24;93356.41;;;10.39;100.00
39681;BME280;26327;42.550;23.120;2023-02-28T09:56:55;93288.94;;;10.15;100.00
39681;BME280;26327;42.550;23.120;2023-02-28T10:05:02;93313.41;;;10.45;100.00
39681;BME280;26327;42.550;23.120;2023-02-28T10:07:36;93352.16;;;11.01;100.00
39681;BME280;26327;42.550;23.120;2023-02-28T10:10:15;93281.59;;;9.22;100.00
39681;BME280;26327;42.550;23.120;2023-02-28T10:12:44;93347.00;;;10.93;100.00
39681;BME280;26327;42.550;23.120;2023-02-28T10:15:16;93320.34;;;10.91;100.00
39681;BME280;26327;42.550;23.120;2023-02-28T10:17:45;93315.31;;;11.44;100.00
39681;BME280;26327;42.550;23.120;2023-02-28T10:20:19;93277.84;;;11.30;100.00
39681;BME280;26327;42.550;23.120;2023-02-28T10:25:39;93286.94;;;12.09;100.00
39681;BME280;26327;42.550;23.120;2023-02-28T10:28:15;93283.50;;;11.56;100.00
39681;BME280;26327;42.550;23.120;2023-02-28T10:30:47;93329.66;;;11.40;100.00
39681;BME280;26327;42.550;23.120;2023-02-28T10:35:53;93264.69;;;12.07;100.00
39681;BME280;26327;42.550;23.120;2023-02-28T10:38:28;93314.44;;;12.85;100.00
39681;BME280;26327;42.550;23.120;2023-02-28T10:41:14;93317.41;;;13.54;97.36
39681;BME280;26327;42.550;23.120;2023-02-28T10:43:41;93267.47;;;13.36;96.40
39681;BME280;26327;42.550;23.120;2023-02-28T10:46:12;93308.50;;;13.92;94.57
39681;BME280;26327;42.550;23.120;2023-02-28T10:48:42;93289.03;;;14.22;93.13
39681;BME280;26327;42.550;23.120;2023-02-28T10:51:14;93291.41;;;14.17;91.72
39681;BME280;26327;42.550;23.120;2023-02-28T10:53:47;93267.81;;;15.21;89.05
39681;BME280;26327;42.550;23.120;2023-02-28T10:56:21;93259.78;;;15.35;87.59
39681;BME280;26327;42.550;23.120;2023-02-28T10:59:02;93191.59;;;14.76;87.81
39681;BME280;26327;42.550;23.120;2023-02-28T11:01:43;93277.25;;;15.15;88.56
39681;BME280;26327;42.550;23.120;2023-02-28T11:06:48;93213.09;;;15.65;85.15
39681;BME280;26327;42.550;23.120;2023-02-28T11:09:25;93252.84;;;14.54;89.49
39681;BME280;26327;42.550;23.120;2023-02-28T11:11:55;93238.75;;;16.61;85.99
39681;BME280;26327;42.550;23.120;2023-02-28T11:14:30;93206.47;;;16.60;83.75
39681;BME280;26327;42.550;23.120;2023-02-28T11:17:00;93257.22;;;16.92;83.11
39681;BME280;26327;42.550;23.120;2023-02-28T11:19:28;93255.69;;;17.23;81.86
39681;BME280;26327;42.550;23.120;2023-02-28T11:22:00;93265.38;;;16.71;83.46
39681;BME280;26327;42.550;23.120;2023-02-28T11:24:33;93253.88;;;16.72;82.45
39681;BME280;26327;42.550;23.120;2023-02-28T11:27:01;93213.78;;;16.38;83.27
39681;BME280;26327;42.550;23.120;2023-02-28T11:29:29;93210.09;;;16.73;81.51
39681;BME280;26327;42.550;23.120;2023-02-28T11:34:32;93200.38;;;15.89;84.72
39681;BME280;26327;42.550;23.120;2023-02-28T11:36:59;93241.69;;;16.13;84.24
39681;BME280;26327;42.550;23.120;2023-02-28T11:39:26;93246.31;;;16.18;84.62
39681;BME280;26327;42.550;23.120;2023-02-28T11:42:11;93250.16;;;15.82;85.80
39681;BME280;26327;42.550;23.120;2023-02-28T11:52:56;93244.91;;;15.89;86.35
39681;BME280;26327;42.550;23.120;2023-02-28T11:55:37;93168.75;;;15.31;87.41
39681;BME280;26327;42.550;23.120;2023-02-28T12:01:02;93230.78;;;15.50;88.20
39681;BME280;26327;42.550;23.120;2023-02-28T12:03:45;93235.06;;;15.78;88.32
39681;BME280;26327;42.550;23.120;2023-02-28T12:06:23;93227.19;;;15.84;88.76
39681;BME280;26327;42.550;23.120;2023-02-28T12:11:56;93147.09;;;16.21;85.31
39681;BME280;26327;42.550;23.120;2023-02-28T12:17:22;93215.75;;;17.14;84.32
39681;BME280;26327;42.550;23.120;2023-02-28T12:28:15;93197.53;;;15.51;88.65
39681;BME280;26327;42.550;23.120;2023-02-28T12:31:03;93213.03;;;16.05;87.36
39681;BME280;26327;42.550;23.120;2023-02-28T12:33:34;93183.25;;;15.86;86.60
39681;BME280;26327;42.550;23.120;2023-02-28T12:36:06;93199.34;;;16.03;87.62
39681;BME280;26327;42.550;23.120;2023-02-28T12:38:40;93136.66;;;15.95;86.79
39681;BME280;26327;42.550;23.120;2023-02-28T12:41:59;93182.00;;;16.02;86.63
39681;BME280;26327;42.550;23.120;2023-02-28T12:44:11;93164.13;;;15.79;88.84
39681;BME280;26327;42.550;23.120;2023-02-28T12:46:41;93177.53;;;16.22;88.48
39681;BME280;26327;42.550;23.120;2023-02-28T12:49:12;93173.31;;;16.08;89.46
39681;BME280;26327;42.550;23.120;2023-02-28T12:51:39;93176.78;;;15.95;87.93
39681;BME280;26327;42.550;23.120;2023-02-28T12:54:23;93190.91;;;15.94;89.59
39681;BME280;26327;42.550;23.120;2023-02-28T13:04:49;93183.03;;;15.94;87.93
39681;BME280;26327;42.550;23.120;2023-02-28T13:10:06;93179.25;;;15.77;89.49
39681;BME280;26327;42.550;23.120;2023-02-28T13:12:33;93101.47;;;15.25;90.80
39681;BME280;26327;42.550;23.120;2023-02-28T13:15:21;93143.75;;;15.55;89.54
39681;BME280;26327;42.550;23.120;2023-02-28T13:17:51;93066.03;;;14.89;90.86
39681;BME280;26327;42.550;23.120;2023-02-28T13:20:19;93161.53;;;15.66;90.68
39681;BME280;26327;42.550;23.120;2023-02-28T13:22:48;93141.34;;;15.27;91.16
39681;BME280;26327;42.550;23.120;2023-02-28T13:27:55;93165.50;;;15.42;88.86
39681;BME280;26327;42.550;23.120;2023-02-28T13:35:45;93162.25;;;15.07;89.82
39681;BME280;26327;42.550;23.120;2023-02-28T13:38:32;93081.88;;;14.61;90.62
39681;BME280;26327;42.550;23.120;2023-02-28T13:44:05;93068.72;;;14.28;90.09
39681;BME280;26327;42.550;23.120;2023-02-28T13:46:36;93143.69;;;14.75;90.76
39681;BME280;26327;42.550;23.120;2023-02-28T13:52:17;93141.88;;;14.69;91.53
39681;BME280;26327;42.550;23.120;2023-02-28T13:55:23;93115.38;;;14.25;91.77
39681;BME280;26327;42.550;23.120;2023-02-28T14:09:06;93143.47;;;13.75;95.36
39681;BME280;26327;42.550;23.120;2023-02-28T14:11:42;93099.75;;;13.55;94.65
39681;BME280;26327;42.550;23.120;2023-02-28T14:14:09;93135.84;;;13.80;95.02
39681;BME280;26327;42.550;23.120;2023-02-28T14:16:55;93142.16;;;13.99;95.10
39681;BME280;26327;42.550;23.120;2023-02-28T14:19:22;93148.59;;;13.96;95.24
39681;BME280;26327;42.550;23.120;2023-02-28T14:29:56;93086.16;;;13.32;95.66
39681;BME280;26327;42.550;23.120;2023-02-28T14:32:32;93091.41;;;13.39;95.81
39681;BME280;26327;42.550;23.120;2023-02-28T14:37:45;93087.16;;;13.10;96.51
39681;BME280;26327;42.550;23.120;2023-02-28T14:40:30;93113.19;;;13.25;97.84
39681;BME280;26327;42.550;23.120;2023-02-28T14:43:05;93133.25;;;13.24;98.30
39681;BME280;26327;42.550;23.120;2023-02-28T14:45:33;93083.22;;;12.92;97.61
39681;BME280;26327;42.550;23.120;2023-02-28T14:48:02;93101.16;;;12.81;97.78
39681;BME280;26327;42.550;23.120;2023-02-28T14:50:34;93072.53;;;12.66;98.20
39681;BME280;26327;42.550;23.120;2023-02-28T14:53:01;93126.41;;;13.02;98.31
39681;BME280;26327;42.550;23.120;2023-02-28T14:55:30;93128.53;;;12.91;98.15
39681;BME280;26327;42.550;23.120;2023-02-28T14:57:57;93060.66;;;12.21;99.13
39681;BME280;26327;42.550;23.120;2023-02-28T15:00:25;93126.75;;;12.92;98.70
39681;BME280;26327;42.550;23.120;2023-02-28T15:02:51;93122.03;;;12.81;98.64
39681;BME280;26327;42.550;23.120;2023-02-28T15:05:25;93126.09;;;12.69;98.45
39681;BME280;26327;42.550;23.120;2023-02-28T15:08:14;93123.41;;;11.46;100.00
39681;BME280;26327;42.550;23.120;2023-02-28T15:10:49;93114.44;;;11.78;100.00
39681;BME280;26327;42.550;23.120;2023-02-28T15:13:15;93107.34;;;10.90;100.00
39681;BME280;26327;42.550;23.120;2023-02-28T15:16:18;93136.63;;;11.07;100.00
39681;BME280;26327;42.550;23.120;2023-02-28T15:18:52;93110.94;;;11.41;100.00
39681;BME280;26327;42.550;23.120;2023-02-28T15:21:21;93084.06;;;10.96;100.00
39681;BME280;26327;42.550;23.120;2023-02-28T15:24:00;93140.13;;;11.14;100.00
39681;BME280;26327;42.550;23.120;2023-02-28T15:26:43;93148.63;;;10.85;100.00
39681;BME280;26327;42.550;23.120;2023-02-28T15:29:19;93155.97;;;10.81;100.00
39681;BME280;26327;42.550;23.120;2023-02-28T15:31:50;93097.97;;;10.43;100.00
39681;BME280;26327;42.550;23.120;2023-02-28T15:40:16;93106.63;;;10.58;100.00
39681;BME280;26327;42.550;23.120;2023-02-28T15:42:57;93037.84;;;10.00;100.00
39681;BME280;26327;42.550;23.120;2023-02-28T15:45:41;93154.22;;;10.28;100.00
39681;BME280;26327;42.550;23.120;2023-02-28T15:48:17;93155.13;;;10.43;100.00
39681;BME280;26327;42.550;23.120;2023-02-28T15:50:44;93143.06;;;10.50;100.00
39681;BME280;26327;42.550;23.120;2023-02-28T15:53:17;93129.84;;;10.60;100.00
39681;BME280;26327;42.550;23.120;2023-02-28T15:55:44;93122.41;;;9.87;100.00
39681;BME280;26327;42.550;23.120;2023-02-28T15:58:12;93134.22;;;9.58;100.00
39681;BME280;26327;42.550;23.120;2023-02-28T16:00:38;93157.97;;;10.25;100.00
39681;BME280;26327;42.550;23.120;2023-02-28T16:03:27;93148.41;;;10.18;100.00
39681;BME280;26327;42.550;23.120;2023-02-28T16:08:46;93146.38;;;10.36;100.00
39681;BME280;26327;42.550;23.120;2023-02-28T16:11:14;93119.81;;;9.87;100.00
39681;BME280;26327;42.550;23.120;2023-02-28T16:13:39;93168.34;;;10.17;100.00
39681;BME280;26327;42.550;23.120;2023-02-28T16:16:05;93158.59;;;10.27;100.00
39681;BME280;26327;42.550;23.120;2023-02-28T16:18:30;93171.06;;;10.32;100.00
39681;BME280;26327;42.550;23.120;2023-02-28T16:20:56;93191.31;;;10.45;100.00
39681;BME280;26327;42.550;23.120;2023-02-28T16:23:21;93162.47;;;10.31;100.00
39681;BME280;26327;42.550;23.120;2023-02-28T16:25:47;93158.06;;;10.32;100.00
39681;BME280;26327;42.550;23.120;2023-02-28T16:28:19;93135.75;;;10.15;100.00
39681;BME280;26327;42.550;23.120;2023-02-28T16:30:45;93153.91;;;10.23;100.00
39681;BME280;26327;42.550;23.120;2023-02-28T16:33:11;93171.22;;;10.30;100.00
39681;BME280;26327;42.550;23.120;2023-02-28T16:35:36;93147.09;;;10.22;100.00
39681;BME280;26327;42.550;23.120;2023-02-28T16:38:01;93194.91;;;10.35;100.00
39681;BME280;26327;42.550;23.120;2023-02-28T16:40:27;93130.22;;;10.18;100.00
39681;BME280;26327;42.550;23.120;2023-02-28T16:42:57;93164.75;;;10.57;100.00
39681;BME280;26327;42.550;23.120;2023-02-28T16:45:28;93173.59;;;10.71;100.00
39681;BME280;26327;42.550;23.120;2023-02-28T16:47:54;93203.03;;;10.94;100.00
39681;BME280;26327;42.550;23.120;2023-02-28T16:50:25;93157.53;;;10.67;100.00
39681;BME280;26327;42.550;23.120;2023-02-28T16:52:51;93168.41;;;10.71;100.00
39681;BME280;26327;42.550;23.120;2023-02-28T16:55:19;93148.41;;;10.49;100.00
39681;BME280;26327;42.550;23.120;2023-02-28T16:57:49;93206.88;;;10.76;100.00
39681;BME280;26327;42.550;23.120;2023-02-28T17:00:16;93177.34;;;10.46;100.00
39681;BME280;26327;42.550;23.120;2023-02-28T17:02:42;93214.66;;;10.76;100.00
39681;BME280;26327;42.550;23.120;2023-02-28T17:05:10;93210.66;;;10.65;100.00
39681;BME280;26327;42.550;23.120;2023-02-28T17:07:36;93213.19;;;10.50;100.00
39681;BME280;26327;42.550;23.120;2023-02-28T17:10:04;93201.72;;;10.36;100.00
39681;BME280;26327;42.550;23.120;2023-02-28T17:12:34;93209.44;;;10.53;100.00
39681;BME280;26327;42.550;23.120;2023-02-28T17:15:00;93102.13;;;9.90;100.00
39681;BME280;26327;42.550;23.120;2023-02-28T17:17:25;93157.66;;;10.20;100.00
39681;BME280;26327;42.550;23.120;2023-02-28T17:19:50;93174.19;;;10.27;100.00
39681;BME280;26327;42.550;23.120;2023-02-28T17:22:16;93179.38;;;10.27;100.00
39681;BME280;26327;42.550;23.120;2023-02-28T17:24:42;93115.63;;;9.77;100.00
39681;BME280;26327;42.550;23.120;2023-02-28T17:27:11;93153.00;;;10.07;100.00
39681;BME280;26327;42.550;23.120;2023-02-28T17:29:37;93180.88;;;10.14;100.00
39681;BME280;26327;42.550;23.120;2023-02-28T17:32:03;93203.34;;;10.37;100.00
39681;BME280;26327;42.550;23.120;2023-02-28T17:34:29;93144.94;;;9.94;100.00
39681;BME280;26327;42.550;23.120;2023-02-28T17:36:54;93192.72;;;10.16;100.00
39681;BME280;26327;42.550;23.120;2023-02-28T17:39:19;93093.50;;;9.59;100.00
39681;BME280;26327;42.550;23.120;2023-02-28T17:41:53;93193.69;;;10.23;100.00
39681;BME280;26327;42.550;23.120;2023-02-28T17:44:19;93204.56;;;10.10;100.00
39681;BME280;26327;42.550;23.120;2023-02-28T17:46:45;93178.19;;;9.91;100.00
39681;BME280;26327;42.550;23.120;2023-02-28T17:49:11;93160.41;;;9.79;100.00
39681;BME280;26327;42.550;23.120;2023-02-28T17:51:36;93153.94;;;9.67;100.00
39681;BME280;26327;42.550;23.120;2023-02-28T17:54:02;93200.44;;;9.93;100.00
39681;BME280;26327;42.550;23.120;2023-02-28T17:56:27;93189.13;;;9.70;100.00
39681;BME280;26327;42.550;23.120;2023-02-28T17:58:54;93137.16;;;9.39;100.00
39681;BME280;26327;42.550;23.120;2023-02-28T18:01:21;93145.59;;;9.49;100.00
39681;BME280;26327;42.550;23.120;2023-02-28T18:03:47;93150.78;;;9.49;100.00
39681;BME280;26327;42.550;23.120;2023-02-28T18:06:28;93154.38;;;9.24;100.00
39681;BME280;26327;42.550;23.120;2023-02-28T18:08:55;93211.25;;;9.50;100.00
39681;BME280;26327;42.550;23.120;2023-02-28T18:11:22;93174.28;;;9.31;100.00
39681;BME280;26327;42.550;23.120;2023-02-28T18:13:50;93150.34;;;8.97;100.00
39681;BME280;26327;42.550;23.120;2023-02-28T18:16:17;93184.47;;;9.41;100.00
39681;BME280;26327;42.550;23.120;2023-02-28T18:18:43;93209.28;;;9.60;100.00
39681;BME280;26327;42.550;23.120;2023-02-28T18:21:10;93220.78;;;9.41;100.00
39681;BME280;26327;42.550;23.120;2023-02-28T18:23:36;93213.53;;;9.04;100.00
39681;BME280;26327;42.550;23.120;2023-02-28T18:26:06;93180.97;;;9.09;100.00
39681;BME280;26327;42.550;23.120;2023-02-28T18:28:31;93231.16;;;9.57;100.00
39681;BME280;26327;42.550;23.120;2023-02-28T18:31:07;93227.44;;;9.60;100.00
39681;BME280;26327;42.550;23.120;2023-02-28T18:33:33;93206.06;;;9.25;100.00
39681;BME280;26327;42.550;23.120;2023-02-28T18:35:58;93225.81;;;9.42;100.00
39681;BME280;26327;42.550;23.120;2023-02-28T18:38:24;93197.81;;;9.05;100.00
39681;BME280;26327;42.550;23.120;2023-02-28T18:40:55;93221.63;;;9.17;100.00
39681;BME280;26327;42.550;23.120;2023-02-28T18:43:21;93251.56;;;8.95;100.00
39681;BME280;26327;42.550;23.120;2023-02-28T18:45:47;93227.19;;;8.47;100.00
39681;BME280;26327;42.550;23.120;2023-02-28T18:48:12;93178.53;;;8.59;100.00
39681;BME280;26327;42.550;23.120;2023-02-28T18:50:39;93232.50;;;9.04;100.00
39681;BME280;26327;42.550;23.120;2023-02-28T18:53:06;93229.88;;;9.21;100.00
39681;BME280;26327;42.550;23.120;2023-02-28T18:55:32;93237.34;;;9.07;100.00
39681;BME280;26327;42.550;23.120;2023-02-28T18:57:58;93241.53;;;8.92;100.00
39681;BME280;26327;42.550;23.120;2023-02-28T19:00:24;93213.50;;;8.88;100.00
39681;BME280;26327;42.550;23.120;2023-02-28T19:02:50;93238.81;;;9.18;100.00
39681;BME280;26327;42.550;23.120;2023-02-28T19:05:17;93236.03;;;9.36;100.00
39681;BME280;26327;42.550;23.120;2023-02-28T19:07:43;93222.25;;;9.35;100.00
39681;BME280;26327;42.550;23.120;2023-02-28T19:10:09;93241.22;;;9.28;100.00
39681;BME280;26327;42.550;23.120;2023-02-28T19:12:36;93223.41;;;9.25;100.00
39681;BME280;26327;42.550;23.120;2023-02-28T19:15:04;93223.88;;;8.88;100.00
39681;BME280;26327;42.550;23.120;2023-02-28T19:17:30;93237.19;;;9.09;100.00
39681;BME280;26327;42.550;23.120;2023-02-28T19:19:56;93243.66;;;9.29;100.00
39681;BME280;26327;42.550;23.120;2023-02-28T19:22:22;93228.56;;;9.41;100.00
39681;BME280;26327;42.550;23.120;2023-02-28T19:24:49;93218.19;;;9.41;100.00
39681;BME280;26327;42.550;23.120;2023-02-28T19:27:15;93178.38;;;9.18;100.00
39681;BME280;26327;42.550;23.120;2023-02-28T19:29:41;93224.56;;;9.06;100.00
39681;BME280;26327;42.550;23.120;2023-02-28T19:32:07;93194.22;;;8.90;100.00
39681;BME280;26327;42.550;23.120;2023-02-28T19:34:32;93227.47;;;9.11;100.00
39681;BME280;26327;42.550;23.120;2023-02-28T19:36:58;93241.72;;;9.31;100.00
39681;BME280;26327;42.550;23.120;2023-02-28T19:39:23;93163.31;;;9.05;100.00
39681;BME280;26327;42.550;23.120;2023-02-28T19:41:48;93185.34;;;9.17;100.00
39681;BME280;26327;42.550;23.120;2023-02-28T19:44:14;93220.78;;;9.41;100.00
39681;BME280;26327;42.550;23.120;2023-02-28T19:46:39;93224.66;;;9.61;100.00
39681;BME280;26327;42.550;23.120;2023-02-28T19:49:04;93185.13;;;9.43;100.00
39681;BME280;26327;42.550;23.120;2023-02-28T19:51:30;93190.19;;;9.12;100.00
39681;BME280;26327;42.550;23.120;2023-02-28T19:53:55;93185.00;;;9.28;100.00
39681;BME280;26327;42.550;23.120;2023-02-28T19:56:20;93135.47;;;8.74;100.00
39681;BME280;26327;42.550;23.120;2023-02-28T19:58:46;93175.13;;;9.07;100.00
39681;BME280;26327;42.550;23.120;2023-02-28T20:01:14;93186.00;;;9.11;100.00
39681;BME280;26327;42.550;23.120;2023-02-28T20:03:41;93241.72;;;9.56;100.00
39681;BME280;26327;42.550;23.120;2023-02-28T20:06:10;93182.59;;;9.10;100.00
39681;BME280;26327;42.550;23.120;2023-02-28T20:08:40;93201.38;;;9.12;100.00
39681;BME280;26327;42.550;23.120;2023-02-28T20:11:08;93237.19;;;9.09;100.00
39681;BME280;26327;42.550;23.120;2023-02-28T20:13:34;93189.69;;;8.76;100.00
39681;BME280;26327;42.550;23.120;2023-02-28T20:16:02;93265.47;;;8.78;100.00
39681;BME280;26327;42.550;23.120;2023-02-28T20:18:30;93206.88;;;8.77;100.00
39681;BME280;26327;42.550;23.120;2023-02-28T20:20:56;93249.00;;;9.20;100.00
39681;BME280;26327;42.550;23.120;2023-02-28T20:23:21;93188.41;;;8.88;100.00
39681;BME280;26327;42.550;23.120;2023-02-28T20:25:47;93257.59;;;9.04;100.00
39681;BME280;26327;42.550;23.120;2023-02-28T20:28:12;93253.22;;;9.12;100.00
39681;BME280;26327;42.550;23.120;2023-02-28T20:30:38;93272.94;;;8.89;100.00
39681;BME280;26327;42.550;23.120;2023-02-28T20:33:05;93205.25;;;8.84;100.00
39681;BME280;26327;42.550;23.120;2023-02-28T20:35:31;93196.03;;;8.81;100.00
39681;BME280;26327;42.550;23.120;2023-02-28T20:37:57;93214.97;;;9.23;100.00
39681;BME280;26327;42.550;23.120;2023-02-28T20:40:23;93269.59;;;9.54;100.00
39681;BME280;26327;42.550;23.120;2023-02-28T20:42:48;93249.81;;;9.28;100.00
39681;BME280;26327;42.550;23.120;2023-02-28T20:45:14;93266.50;;;9.42;100.00
39681;BME280;26327;42.550;23.120;2023-02-28T20:47:39;93206.88;;;8.85;100.00
39681;BME280;26327;42.550;23.120;2023-02-28T20:50:07;93262.28;;;9.00;100.00
39681;BME280;26327;42.550;23.120;2023-02-28T20:52:32;93272.50;;;9.10;100.00
39681;BME280;26327;42.550;23.120;2023-02-28T20:54:58;93274.56;;;8.90;100.00
39681;BME280;26327;42.550;23.120;2023-02-28T20:57:23;93274.94;;;9.03;100.00
39681;BME280;26327;42.550;23.120;2023-02-28T20:59:49;93227.84;;;8.41;100.00
39681;BME280;26327;42.550;23.120;2023-02-28T21:02:15;93175.78;;;8.10;100.00
39681;BME280;26327;42.550;23.120;2023-02-28T21:04:41;93266.81;;;8.98;100.00
39681;BME280;26327;42.550;23.120;2023-02-28T21:07:06;93202.31;;;8.55;100.00
39681;BME280;26327;42.550;23.120;2023-02-28T21:09:32;93264.25;;;9.06;100.00
39681;BME280;26327;42.550;23.120;2023-02-28T21:11:57;93262.47;;;9.15;100.00
39681;BME280;26327;42.550;23.120;2023-02-28T21:14:22;93249.28;;;8.84;100.00
39681;BME280;26327;42.550;23.120;2023-02-28T21:16:49;93204.91;;;8.63;100.00
39681;BME280;26327;42.550;23.120;2023-02-28T21:19:15;93222.06;;;8.64;100.00
39681;BME280;26327;42.550;23.120;2023-02-28T21:21:42;93268.25;;;8.93;100.00
39681;BME280;26327;42.550;23.120;2023-02-28T21:24:13;93269.38;;;8.90;100.00
39681;BME280;26327;42.550;23.120;2023-02-28T21:26:40;93244.91;;;8.76;100.00
39681;BME280;26327;42.550;23.120;2023-02-28T21:29:06;93199.56;;;8.72;100.00
39681;BME280;26327;42.550;23.120;2023-02-28T21:31:33;93189.06;;;8.66;100.00
39681;BME280;26327;42.550;23.120;2023-02-28T21:34:01;93220.78;;;8.84;100.00
39681;BME280;26327;42.550;23.120;2023-02-28T21:36:29;93261.66;;;9.31;100.00
39681;BME280;26327;42.550;23.120;2023-02-28T21:39:10;93246.41;;;9.11;100.00
39681;BME280;26327;42.550;23.120;2023-02-28T21:41:36;93267.13;;;8.95;100.00
39681;BME280;26327;42.550;23.120;2023-02-28T21:44:02;93199.41;;;8.66;100.00
39681;BME280;26327;42.550;23.120;2023-02-28T21:46:29;93258.09;;;8.99;100.00
39681;BME280;26327;42.550;23.120;2023-02-28T21:48:55;93255.50;;;9.07;100.00
39681;BME280;26327;42.550;23.120;2023-02-28T21:51:23;93207.66;;;8.69;100.00
39681;BME280;26327;42.550;23.120;2023-02-28T21:53:50;93260.50;;;9.09;100.00
39681;BME280;26327;42.550;23.120;2023-02-28T21:56:19;93230.50;;;8.98;100.00
39681;BME280;26327;42.550;23.120;2023-02-28T21:58:45;93144.31;;;8.39;100.00
39681;BME280;26327;42.550;23.120;2023-02-28T22:01:20;93200.38;;;8.73;100.00
39681;BME280;26327;42.550;23.120;2023-02-28T22:03:47;93226.94;;;8.67;100.00
39681;BME280;26327;42.550;23.120;2023-02-28T22:06:20;93196.81;;;8.58;100.00
39681;BME280;26327;42.550;23.120;2023-02-28T22:08:48;93249.63;;;8.81;100.00
39681;BME280;26327;42.550;23.120;2023-02-28T22:11:15;93205.19;;;8.43;100.00
39681;BME280;26327;42.550;23.120;2023-02-28T22:13:41;93212.47;;;8.48;100.00
39681;BME280;26327;42.550;23.120;2023-02-28T22:16:09;93183.25;;;8.21;100.00
39681;BME280;26327;42.550;23.120;2023-02-28T22:18:36;93197.09;;;8.46;100.00
39681;BME280;26327;42.550;23.120;2023-02-28T22:21:02;93251.72;;;8.77;100.00
39681;BME280;26327;42.550;23.120;2023-02-28T22:23:28;93251.22;;;8.66;100.00
39681;BME280;26327;42.550;23.120;2023-02-28T22:25:54;93193.75;;;8.12;100.00
39681;BME280;26327;42.550;23.120;2023-02-28T22:28:21;93207.63;;;7.69;100.00
39681;BME280;26327;42.550;23.120;2023-02-28T22:30:47;93231.13;;;8.17;100.00
39681;BME280;26327;42.550;23.120;2023-02-28T22:33:12;93253.78;;;8.58;100.00
39681;BME280;26327;42.550;23.120;2023-02-28T22:35:38;93258.00;;;8.59;100.00
39681;BME280;26327;42.550;23.120;2023-02-28T22:38:04;93244.75;;;8.78;100.00
39681;BME280;26327;42.550;23.120;2023-02-28T22:40:29;93183.81;;;8.49;100.00
39681;BME280;26327;42.550;23.120;2023-02-28T22:42:56;93231.47;;;8.89;100.00
39681;BME280;26327;42.550;23.120;2023-02-28T22:45:21;93184.19;;;8.63;100.00
39681;BME280;26327;42.550;23.120;2023-02-28T22:47:47;93226.63;;;8.94;100.00
39681;BME280;26327;42.550;23.120;2023-02-28T22:50:13;93250.97;;;9.18;100.00
39681;BME280;26327;42.550;23.120;2023-02-28T22:52:39;93251.28;;;9.23;100.00
39681;BME280;26327;42.550;23.120;2023-02-28T22:55:06;93234.91;;;9.06;100.00
39681;BME280;26327;42.550;23.120;2023-02-28T22:57:31;93231.84;;;9.19;100.00
39681;BME280;26327;42.550;23.120;2023-02-28T22:59:57;93122.47;;;8.34;100.00